Time,TemperatureF,DewpointF,PressureIn,WindDirection,WindDirectionDegrees,WindSpeedMPH,WindSpeedGustMPH,Humidity,HourlyPrecipIn,Conditions,Clouds,dailyrainin,SoftwareType,DateUTC
2013-07-26 00:01:00,54.7,52.4,30.09,NE,46,0.0,0.0,92,0.00,CLR,,0.00,WeatherDisplay:10.37,2013-07-26 04:01:00,
2013-07-26 00:02:00,54.7,52.4,30.08,NE,46,0.0,0.0,92,0.00,CLR,,0.00,WeatherDisplay:10.37,2013-07-26 04:02:00,
2013-07-26 00:07:00,54.6,52.3,30.09,NE,46,0.0,0.0,92,0.00,CLR,,0.00,WeatherDisplay:10.37,2013-07-26 04:07:00,
2013-07-26 00:12:00,54.4,52.1,30.09,NE,46,0.0,0.0,92,0.00,CLR,,0.00,WeatherDisplay:10.37,2013-07-26 04:12:00,
2013-07-26 00:17:00,54.3,52.0,30.08,NE,46,0.0,0.0,92,0.00,CLR,,0.00,WeatherDisplay:10.37,2013-07-26 04:17:00,
2013-07-26 00:22:00,54.2,51.9,30.08,NE,46,0.0,0.0,92,0.00,CLR,,0.00,WeatherDisplay:10.37,2013-07-26 04:22:00,
2013-07-26 00:27:00,54.0,51.7,30.08,NE,46,0.0,0.0,92,0.00,CLR,,0.00,WeatherDisplay:10.37,2013-07-26 04:27:00,
2013-07-26 00:32:00,53.9,51.6,30.08,NE,46,0.0,0.0,92,0.00,CLR,,0.00,WeatherDisplay:10.37,2013-07-26 04:32:00,
2013-07-26 00:37:00,53.9,51.6,30.08,NE,46,0.0,0.0,92,0.00,CLR,,0.00,WeatherDisplay:10.37,2013-07-26 04:37:00,
2013-07-26 00:42:00,53.8,51.5,30.08,NE,46,0.0,0.0,92,0.00,CLR,,0.00,WeatherDisplay:10.37,2013-07-26 04:42:00,
2013-07-26 00:48:00,53.6,51.3,30.08,NE,46,0.0,0.0,92,0.00,CLR,,0.00,WeatherDisplay:10.37,2013-07-26 04:48:00,
2013-07-26 00:53:00,53.5,51.2,30.08,NE,46,0.0,0.0,92,0.00,CLR,,0.00,WeatherDisplay:10.37,2013-07-26 04:53:00,
2013-07-26 00:58:00,53.4,51.1,30.07,NE,46,0.0,0.0,92,0.00,CLR,,0.00,WeatherDisplay:10.37,2013-07-26 04:58:00,
2013-07-26 01:03:00,53.3,51.3,30.07,NE,46,0.0,0.0,93,0.00,CLR,,0.00,WeatherDisplay:10.37,2013-07-26 05:03:00,
2013-07-26 01:08:00,53.3,51.3,30.06,NE,46,0.0,0.0,93,0.00,CLR,,0.00,WeatherDisplay:10.37,2013-07-26 05:08:00,
2013-07-26 01:13:00,53.2,51.2,30.06,NE,46,0.0,0.0,93,0.00,CLR,,0.00,WeatherDisplay:10.37,2013-07-26 05:13:00,
2013-07-26 01:18:00,53.1,51.1,30.07,NE,46,0.0,0.0,93,0.00,CLR,,0.00,WeatherDisplay:10.37,2013-07-26 05:18:00,
2013-07-26 01:23:00,52.9,50.9,30.07,NE,46,0.0,0.0,93,0.00,CLR,,0.00,WeatherDisplay:10.37,2013-07-26 05:23:00,
2013-07-26 01:28:00,52.8,50.8,30.06,NE,46,0.0,0.0,93,0.00,CLR,,0.00,WeatherDisplay:10.37,2013-07-26 05:28:00,
2013-07-26 01:33:00,52.8,50.8,30.06,NE,46,0.0,0.0,93,0.00,CLR,,0.00,WeatherDisplay:10.37,2013-07-26 05:33:00,
2013-07-26 01:38:00,52.8,50.8,30.06,NE,46,0.0,0.0,93,0.00,CLR,,0.00,WeatherDisplay:10.37,2013-07-26 05:38:00,
2013-07-26 01:43:00,52.8,50.8,30.06,NE,46,0.0,0.0,93,0.00,CLR,,0.00,WeatherDisplay:10.37,2013-07-26 05:43:00,
2013-07-26 01:48:00,52.7,50.7,30.06,NE,46,0.0,0.0,93,0.00,CLR,,0.00,WeatherDisplay:10.37,2013-07-26 05:48:00,
2013-07-26 01:53:00,52.7,50.7,30.06,NE,46,0.0,0.0,93,0.00,CLR,,0.00,WeatherDisplay:10.37,2013-07-26 05:53:00,
2013-07-26 01:58:00,52.7,50.7,30.06,NE,46,0.0,0.0,93,0.00,CLR,,0.00,WeatherDisplay:10.37,2013-07-26 05:58:00,
2013-07-26 02:03:00,52.6,50.6,30.06,NE,46,0.0,0.0,93,0.00,CLR,,0.00,WeatherDisplay:10.37,2013-07-26 06:03:00,
2013-07-26 02:08:00,52.4,50.4,30.06,NE,46,0.0,0.0,93,0.00,CLR,,0.00,WeatherDisplay:10.37,2013-07-26 06:08:00,
2013-07-26 02:13:00,52.3,50.3,30.06,NE,46,0.0,0.0,93,0.00,CLR,,0.00,WeatherDisplay:10.37,2013-07-26 06:13:00,
2013-07-26 02:18:00,52.2,50.2,30.06,NE,46,0.0,0.0,93,0.00,CLR,,0.00,WeatherDisplay:10.37,2013-07-26 06:18:00,
2013-07-26 02:23:00,52.2,50.2,30.06,NE,46,0.0,0.0,93,0.00,CLR,,0.00,WeatherDisplay:10.37,2013-07-26 06:23:00,
2013-07-26 02:28:00,52.1,50.1,30.06,NE,46,0.0,0.0,93,0.00,CLR,,0.00,WeatherDisplay:10.37,2013-07-26 06:28:00,
2013-07-26 02:33:00,51.9,49.9,30.06,NE,46,0.0,0.0,93,0.00,CLR,,0.00,WeatherDisplay:10.37,2013-07-26 06:33:00,
2013-07-26 02:38:00,51.8,49.9,30.06,NE,46,0.0,0.0,93,0.00,CLR,,0.00,WeatherDisplay:10.37,2013-07-26 06:38:00,
2013-07-26 02:43:00,51.7,49.7,30.06,NE,46,0.0,0.0,93,0.00,CLR,,0.00,WeatherDisplay:10.37,2013-07-26 06:43:00,
2013-07-26 02:48:00,51.6,49.6,30.06,NE,46,0.0,0.0,93,0.00,CLR,,0.00,WeatherDisplay:10.37,2013-07-26 06:48:00,
2013-07-26 02:53:00,51.5,49.5,30.07,NE,46,0.0,0.0,93,0.00,CLR,,0.00,WeatherDisplay:10.37,2013-07-26 06:53:00,
2013-07-26 02:58:00,51.4,49.4,30.06,NE,46,0.0,0.0,93,0.00,CLR,,0.00,WeatherDisplay:10.37,2013-07-26 06:58:00,
2013-07-26 03:03:00,51.3,49.4,30.06,NE,46,0.0,0.0,93,0.00,CLR,,0.00,WeatherDisplay:10.37,2013-07-26 07:03:00,
2013-07-26 03:08:00,51.2,49.2,30.06,NE,46,0.0,0.0,93,0.00,CLR,,0.00,WeatherDisplay:10.37,2013-07-26 07:08:00,
2013-07-26 03:13:00,51.1,49.1,30.06,NE,46,0.0,0.0,93,0.00,CLR,,0.00,WeatherDisplay:10.37,2013-07-26 07:13:00,
2013-07-26 03:18:00,51.0,49.0,30.06,NE,46,0.0,0.0,93,0.00,CLR,,0.00,WeatherDisplay:10.37,2013-07-26 07:18:00,
2013-07-26 03:23:00,50.9,48.9,30.06,NE,46,0.0,0.0,93,0.00,CLR,,0.00,WeatherDisplay:10.37,2013-07-26 07:23:00,
2013-07-26 03:28:00,50.9,48.9,30.06,NE,46,0.0,0.0,93,0.00,CLR,,0.00,WeatherDisplay:10.37,2013-07-26 07:28:00,
2013-07-26 03:33:00,50.8,48.8,30.05,NE,46,0.0,0.0,93,0.00,CLR,,0.00,WeatherDisplay:10.37,2013-07-26 07:33:00,
2013-07-26 03:38:00,50.7,48.7,30.05,NE,46,0.0,0.0,93,0.00,CLR,,0.00,WeatherDisplay:10.37,2013-07-26 07:38:00,
2013-07-26 03:43:00,50.6,48.7,30.06,NE,46,0.0,0.0,93,0.00,CLR,,0.00,WeatherDisplay:10.37,2013-07-26 07:43:00,
2013-07-26 03:48:00,50.5,48.6,30.05,NE,46,0.0,0.0,93,0.00,CLR,,0.00,WeatherDisplay:10.37,2013-07-26 07:48:00,
2013-07-26 03:53:00,50.5,48.6,30.05,NE,46,0.0,0.0,93,0.00,CLR,,0.00,WeatherDisplay:10.37,2013-07-26 07:53:00,
2013-07-26 03:58:00,50.4,48.4,30.05,NE,46,0.0,0.0,93,0.00,CLR,,0.00,WeatherDisplay:10.37,2013-07-26 07:58:00,
2013-07-26 04:03:00,50.2,48.3,30.05,NE,46,0.0,0.0,93,0.00,CLR,,0.00,WeatherDisplay:10.37,2013-07-26 08:03:00,
2013-07-26 04:08:00,50.2,48.3,30.05,NE,46,0.0,0.0,93,0.00,CLR,,0.00,WeatherDisplay:10.37,2013-07-26 08:08:00,
2013-07-26 04:13:00,50.1,48.2,30.05,NE,46,0.0,0.0,93,0.00,CLR,,0.00,WeatherDisplay:10.37,2013-07-26 08:13:00,
2013-07-26 04:18:00,50.0,48.1,30.05,NE,46,0.0,0.0,93,0.00,CLR,,0.00,WeatherDisplay:10.37,2013-07-26 08:18:00,
2013-07-26 04:23:00,49.9,48.0,30.05,NE,46,0.0,0.0,93,0.00,CLR,,0.00,WeatherDisplay:10.37,2013-07-26 08:23:00,
2013-07-26 04:28:00,49.9,48.0,30.05,NE,46,0.0,0.0,93,0.00,CLR,,0.00,WeatherDisplay:10.37,2013-07-26 08:28:00,
2013-07-26 04:33:00,49.9,48.0,30.05,NE,46,0.0,0.0,93,0.00,CLR,,0.00,WeatherDisplay:10.37,2013-07-26 08:33:00,
2013-07-26 04:38:00,49.8,47.9,30.05,NE,46,0.0,0.0,93,0.00,CLR,,0.00,WeatherDisplay:10.37,2013-07-26 08:38:00,
2013-07-26 04:43:00,49.8,47.9,30.05,NE,46,0.0,0.0,93,0.00,CLR,,0.00,WeatherDisplay:10.37,2013-07-26 08:43:00,
2013-07-26 04:48:00,49.7,47.8,30.06,NE,46,0.0,0.0,93,0.00,CLR,,0.00,WeatherDisplay:10.37,2013-07-26 08:48:00,
2013-07-26 04:53:00,49.7,47.7,30.05,NE,46,0.0,0.0,93,0.00,CLR,,0.00,WeatherDisplay:10.37,2013-07-26 08:53:00,
2013-07-26 04:58:00,49.6,47.7,30.06,NE,46,0.0,0.0,93,0.00,CLR,,0.00,WeatherDisplay:10.37,2013-07-26 08:58:00,
2013-07-26 05:03:00,49.6,47.7,30.06,NE,46,0.0,0.0,93,0.00,CLR,,0.00,WeatherDisplay:10.37,2013-07-26 09:03:00,
2013-07-26 05:08:00,49.4,47.5,30.06,NE,46,0.0,0.0,93,0.00,CLR,,0.00,WeatherDisplay:10.37,2013-07-26 09:08:00,
2013-07-26 05:13:00,49.4,47.5,30.06,NE,46,0.0,0.0,93,0.00,CLR,,0.00,WeatherDisplay:10.37,2013-07-26 09:13:00,
2013-07-26 05:18:00,49.3,47.4,30.06,NE,46,0.0,0.0,93,0.00,CLR,,0.00,WeatherDisplay:10.37,2013-07-26 09:18:00,
2013-07-26 05:23:00,49.4,47.5,30.06,NE,46,0.0,0.0,93,0.00,CLR,,0.00,WeatherDisplay:10.37,2013-07-26 09:23:00,
2013-07-26 05:28:00,49.3,47.4,30.06,NE,46,0.0,0.0,93,0.00,CLR,,0.00,WeatherDisplay:10.37,2013-07-26 09:28:00,
2013-07-26 05:33:00,49.3,47.4,30.06,NE,46,0.0,0.0,93,0.00,CLR,,0.00,WeatherDisplay:10.37,2013-07-26 09:33:00,
2013-07-26 05:38:00,49.2,47.3,30.05,NE,46,0.0,0.0,93,0.00,CLR,,0.00,WeatherDisplay:10.37,2013-07-26 09:38:00,
2013-07-26 05:43:00,49.2,47.3,30.06,NE,46,0.0,0.0,93,0.00,CLR,,0.00,WeatherDisplay:10.37,2013-07-26 09:43:00,
2013-07-26 05:48:00,49.1,47.2,30.06,NE,46,0.0,0.0,93,0.00,CLR,,0.00,WeatherDisplay:10.37,2013-07-26 09:48:00,
2013-07-26 05:53:00,49.1,47.2,30.06,NE,46,0.0,0.0,93,0.00,CLR,,0.00,WeatherDisplay:10.37,2013-07-26 09:53:00,
2013-07-26 05:58:00,49.2,47.3,30.06,NE,46,0.0,0.0,93,0.00,CLR,,0.00,WeatherDisplay:10.37,2013-07-26 09:58:00,
2013-07-26 06:03:00,49.2,47.3,30.06,NE,46,0.0,0.0,93,0.00,CLR,,0.00,WeatherDisplay:10.37,2013-07-26 10:03:00,
2013-07-26 06:08:00,49.2,47.3,30.06,NE,46,0.0,0.0,93,0.00,CLR,,0.00,WeatherDisplay:10.37,2013-07-26 10:08:00,
2013-07-26 06:13:00,49.1,47.2,30.06,NE,46,0.0,0.0,93,0.00,CLR,,0.00,WeatherDisplay:10.37,2013-07-26 10:13:00,
2013-07-26 06:18:00,49.0,47.1,30.06,NE,46,0.0,0.0,93,0.00,CLR,,0.00,WeatherDisplay:10.37,2013-07-26 10:18:00,
2013-07-26 06:23:00,49.0,47.1,30.07,NE,46,0.0,0.0,93,0.00,CLR,,0.00,WeatherDisplay:10.37,2013-07-26 10:23:00,
2013-07-26 06:28:00,49.0,47.1,30.07,NE,46,0.0,0.0,93,0.00,CLR,,0.00,WeatherDisplay:10.37,2013-07-26 10:28:00,
2013-07-26 06:33:00,48.9,47.0,30.07,NE,46,0.0,0.0,93,0.00,CLR,,0.00,WeatherDisplay:10.37,2013-07-26 10:33:00,
2013-07-26 06:38:00,48.9,47.0,30.07,NE,46,0.0,0.0,93,0.00,CLR,,0.00,WeatherDisplay:10.37,2013-07-26 10:38:00,
2013-07-26 06:43:00,49.0,47.1,30.07,NE,46,0.0,0.0,93,0.00,CLR,,0.00,WeatherDisplay:10.37,2013-07-26 10:43:00,
2013-07-26 06:48:00,49.2,47.3,30.08,NE,46,0.0,0.0,93,0.00,CLR,,0.00,WeatherDisplay:10.37,2013-07-26 10:48:00,
2013-07-26 06:53:00,49.5,47.6,30.08,NE,46,0.0,0.0,93,0.00,CLR,,0.00,WeatherDisplay:10.37,2013-07-26 10:53:00,
2013-07-26 06:58:00,49.7,47.8,30.08,NE,46,0.0,0.0,93,0.00,CLR,,0.00,WeatherDisplay:10.37,2013-07-26 10:58:00,
2013-07-26 07:03:00,49.9,48.0,30.08,NE,46,0.0,0.0,93,0.00,CLR,,0.00,WeatherDisplay:10.37,2013-07-26 11:03:00,
2013-07-26 07:08:00,50.1,48.2,30.08,NE,46,0.0,0.0,93,0.00,CLR,,0.00,WeatherDisplay:10.37,2013-07-26 11:08:00,
2013-07-26 07:13:00,50.4,48.5,30.08,NE,46,0.0,0.0,93,0.00,SCT,,0.00,WeatherDisplay:10.37,2013-07-26 11:13:00,
2013-07-26 07:18:00,50.6,48.7,30.08,NE,46,0.0,0.0,93,0.00,SCT,,0.00,WeatherDisplay:10.37,2013-07-26 11:18:00,
2013-07-26 07:23:00,51.0,49.0,30.07,NE,46,0.0,0.0,93,0.00,SCT,,0.00,WeatherDisplay:10.37,2013-07-26 11:23:00,
2013-07-26 07:28:00,51.3,49.3,30.07,NE,46,0.0,0.0,93,0.00,SCT,,0.00,WeatherDisplay:10.37,2013-07-26 11:28:00,
2013-07-26 07:33:00,51.5,49.5,30.07,NE,46,0.0,0.0,93,0.00,SCT,,0.00,WeatherDisplay:10.37,2013-07-26 11:33:00,
2013-07-26 07:38:00,52.1,50.1,30.07,NE,46,0.0,0.0,93,0.00,SCT,,0.00,WeatherDisplay:10.37,2013-07-26 11:38:00,
2013-07-26 07:43:00,52.6,50.6,30.07,NE,46,0.0,0.0,93,0.00,SCT,,0.00,WeatherDisplay:10.37,2013-07-26 11:43:00,
2013-07-26 07:48:00,53.1,51.1,30.08,NE,46,0.0,0.0,93,0.00,SCT,,0.00,WeatherDisplay:10.37,2013-07-26 11:48:00,
2013-07-26 07:53:00,53.5,51.8,30.08,NE,46,0.0,0.0,94,0.00,SCT,,0.00,WeatherDisplay:10.37,2013-07-26 11:53:00,
2013-07-26 07:58:00,54.1,52.4,30.08,NE,46,0.0,0.0,94,0.00,SCT,,0.00,WeatherDisplay:10.37,2013-07-26 11:58:00,
2013-07-26 08:03:00,55.0,53.3,30.08,NE,46,0.0,0.0,94,0.00,SCT,,0.00,WeatherDisplay:10.37,2013-07-26 12:03:00,
2013-07-26 08:08:00,56.0,54.3,30.08,NE,46,0.0,0.0,94,0.00,SCT,,0.00,WeatherDisplay:10.37,2013-07-26 12:08:00,
2013-07-26 08:13:00,56.7,55.0,30.08,NE,46,0.0,0.0,94,0.00,SCT,,0.00,WeatherDisplay:10.37,2013-07-26 12:13:00,
2013-07-26 08:18:00,57.1,55.4,30.08,NE,46,0.0,1.2,94,0.00,SCT,,0.00,WeatherDisplay:10.37,2013-07-26 12:18:00,
2013-07-26 08:23:00,57.3,55.6,30.08,NE,46,0.0,0.0,94,0.00,SCT,,0.00,WeatherDisplay:10.37,2013-07-26 12:23:00,
2013-07-26 08:28:00,57.7,56.0,30.08,NE,46,0.0,0.0,94,0.00,SCT,,0.00,WeatherDisplay:10.37,2013-07-26 12:28:00,
2013-07-26 08:33:00,58.5,56.8,30.08,NE,46,0.0,1.2,94,0.00,SCT,,0.00,WeatherDisplay:10.37,2013-07-26 12:33:00,
2013-07-26 08:38:00,59.0,57.3,30.08,NE,46,0.0,0.0,94,0.00,SCT,,0.00,WeatherDisplay:10.37,2013-07-26 12:38:00,
2013-07-26 08:43:00,60.1,58.4,30.08,NE,46,0.0,0.0,94,0.00,SCT,,0.00,WeatherDisplay:10.37,2013-07-26 12:43:00,
2013-07-26 08:48:00,60.5,58.8,30.08,NE,46,0.0,0.0,94,0.00,SCT,,0.00,WeatherDisplay:10.37,2013-07-26 12:48:00,
2013-07-26 08:53:00,60.9,59.2,30.08,NE,46,0.0,0.0,94,0.00,SCT,,0.00,WeatherDisplay:10.37,2013-07-26 12:53:00,
2013-07-26 08:58:00,61.6,59.6,30.08,NE,46,0.0,0.0,93,0.00,SCT,,0.00,WeatherDisplay:10.37,2013-07-26 12:58:00,
2013-07-26 09:03:00,62.3,60.2,30.08,NE,46,0.0,0.0,93,0.00,SCT,,0.00,WeatherDisplay:10.37,2013-07-26 13:03:00,
2013-07-26 09:08:00,63.2,61.1,30.08,NE,46,0.0,0.0,93,0.00,SCT,,0.00,WeatherDisplay:10.37,2013-07-26 13:08:00,
2013-07-26 09:13:00,64.0,61.9,30.08,NE,46,0.1,0.0,93,0.00,SCT,,0.00,WeatherDisplay:10.37,2013-07-26 13:13:00,
2013-07-26 09:18:00,64.8,62.7,30.08,ENE,71,0.4,2.3,93,0.00,SCT,,0.00,WeatherDisplay:10.37,2013-07-26 13:18:00,
2013-07-26 09:23:00,65.7,63.6,30.08,ENE,74,0.1,1.2,93,0.00,SCT,,0.00,WeatherDisplay:10.37,2013-07-26 13:23:00,
2013-07-26 09:28:00,66.4,63.7,30.08,ENE,75,0.9,3.5,91,0.00,SCT,,0.00,WeatherDisplay:10.37,2013-07-26 13:28:00,
2013-07-26 09:34:00,66.0,62.3,30.08,ENE,75,0.0,0.0,88,0.00,SCT,,0.00,WeatherDisplay:10.37,2013-07-26 13:34:00,
2013-07-26 09:39:00,66.7,61.7,30.08,ENE,74,0.0,0.0,84,0.00,SCT,,0.00,WeatherDisplay:10.37,2013-07-26 13:39:00,
2013-07-26 09:44:00,67.4,61.7,30.08,ENE,74,0.0,0.0,82,0.00,SCT,,0.00,WeatherDisplay:10.37,2013-07-26 13:44:00,
2013-07-26 09:49:00,68.0,61.9,30.08,ENE,76,0.1,1.2,81,0.00,SCT,,0.00,WeatherDisplay:10.37,2013-07-26 13:49:00,
2013-07-26 09:54:00,68.2,60.7,30.08,NNE,28,1.7,1.7,77,0.00,SCT,,0.00,WeatherDisplay:10.37,2013-07-26 13:54:00,
2013-07-26 09:59:00,68.1,59.9,30.08,NNE,24,5.2,6.9,75,0.00,SCT,,0.00,WeatherDisplay:10.37,2013-07-26 13:59:00,
2013-07-26 10:04:00,68.1,59.9,30.08,NE,48,2.0,4.6,75,0.00,SCT,,0.00,WeatherDisplay:10.37,2013-07-26 14:04:00,
2013-07-26 10:09:00,68.0,59.8,30.08,NE,34,4.4,6.9,75,0.00,SCT,,0.00,WeatherDisplay:10.37,2013-07-26 14:09:00,
2013-07-26 10:14:00,68.2,60.0,30.07,NNE,32,2.4,5.0,75,0.00,SCT,,0.00,WeatherDisplay:10.37,2013-07-26 14:14:00,
2013-07-26 10:19:00,68.6,60.4,30.07,NE,53,0.1,4.6,75,0.00,SCT,,0.00,WeatherDisplay:10.37,2013-07-26 14:19:00,
2013-07-26 10:24:00,68.9,59.9,30.07,NE,34,3.3,9.2,73,0.00,SCT,,0.00,WeatherDisplay:10.37,2013-07-26 14:24:00,
2013-07-26 10:29:00,69.3,60.7,30.08,ENE,61,2.5,4.6,74,0.00,SCT,,0.00,WeatherDisplay:10.37,2013-07-26 14:29:00,
2013-07-26 10:34:00,69.9,61.2,30.08,NE,44,0.5,3.5,74,0.00,SCT,,0.00,WeatherDisplay:10.37,2013-07-26 14:34:00,
2013-07-26 10:39:00,70.1,60.3,30.07,East,90,0.6,0.0,71,0.00,SCT,,0.00,WeatherDisplay:10.37,2013-07-26 14:39:00,
2013-07-26 10:44:00,70.4,60.1,30.08,ENE,61,2.6,3.5,70,0.00,SCT,,0.00,WeatherDisplay:10.37,2013-07-26 14:44:00,
2013-07-26 10:49:00,70.7,60.0,30.07,ENE,78,1.0,3.0,69,0.00,SCT,,0.00,WeatherDisplay:10.37,2013-07-26 14:49:00,
2013-07-26 10:54:00,71.0,60.3,30.07,ESE,107,0.0,0.0,69,0.00,SCT,,0.00,WeatherDisplay:10.37,2013-07-26 14:54:00,
2013-07-26 10:59:00,71.5,60.0,30.07,ESE,111,0.0,1.0,67,0.00,SCT,,0.00,WeatherDisplay:10.37,2013-07-26 14:59:00,
2013-07-26 11:04:00,72.1,60.5,30.07,NNE,22,0.7,0.0,67,0.00,SCT,,0.00,WeatherDisplay:10.37,2013-07-26 15:04:00,
2013-07-26 11:09:00,72.4,60.4,30.07,NNE,32,0.0,0.0,66,0.00,SCT,,0.00,WeatherDisplay:10.37,2013-07-26 15:09:00,
2013-07-26 11:14:00,72.4,59.5,30.07,NNE,33,1.0,3.0,64,0.00,SCT,,0.00,WeatherDisplay:10.37,2013-07-26 15:14:00,
2013-07-26 11:19:00,72.2,61.4,30.07,ENE,63,1.0,2.0,69,0.00,SCT,,0.00,WeatherDisplay:10.37,2013-07-26 15:19:00,
2013-07-26 11:24:00,72.2,59.8,30.07,ENE,77,2.0,4.0,65,0.00,SCT,,0.00,WeatherDisplay:10.37,2013-07-26 15:24:00,
2013-07-26 11:29:00,72.0,59.6,30.07,East,90,0.5,8.1,65,0.00,SCT,,0.00,WeatherDisplay:10.37,2013-07-26 15:29:00,
2013-07-26 11:34:00,71.8,58.5,30.07,East,79,0.0,0.0,63,0.00,SCT,,0.00,WeatherDisplay:10.37,2013-07-26 15:34:00,
2013-07-26 11:39:00,71.9,58.6,30.06,NE,37,3.0,6.0,63,0.00,SCT,,0.00,WeatherDisplay:10.37,2013-07-26 15:39:00,
2013-07-26 11:44:00,71.7,58.9,30.06,NE,48,1.8,5.8,64,0.00,SCT,,0.00,WeatherDisplay:10.37,2013-07-26 15:44:00,
2013-07-26 11:49:00,71.8,58.5,30.06,NE,47,1.0,4.0,63,0.00,SCT,,0.00,WeatherDisplay:10.37,2013-07-26 15:49:00,
2013-07-26 11:54:00,71.8,58.6,30.06,ENE,58,0.0,3.0,63,0.00,SCT,,0.00,WeatherDisplay:10.37,2013-07-26 15:54:00,
2013-07-26 11:59:00,71.9,58.1,30.06,ENE,62,1.0,8.0,62,0.00,SCT,,0.00,WeatherDisplay:10.37,2013-07-26 15:59:00,
2013-07-26 12:04:00,72.0,59.2,30.06,ENE,64,1.8,4.6,64,0.00,SCT,,0.00,WeatherDisplay:10.37,2013-07-26 16:04:00,
2013-07-26 12:09:00,72.3,59.0,30.06,NE,37,4.1,7.0,63,0.00,SCT,,0.00,WeatherDisplay:10.37,2013-07-26 16:09:00,
2013-07-26 12:14:00,72.3,59.0,30.05,NE,55,3.4,8.1,63,0.00,SCT,,0.00,WeatherDisplay:10.37,2013-07-26 16:14:00,
2013-07-26 12:19:00,72.2,58.5,30.05,NE,45,0.0,1.0,62,0.00,SCT,,0.00,WeatherDisplay:10.37,2013-07-26 16:19:00,
2013-07-26 12:24:00,72.8,60.3,30.05,NE,53,1.4,4.6,65,0.00,SCT,,0.00,WeatherDisplay:10.37,2013-07-26 16:24:00,
2013-07-26 12:29:00,73.2,60.3,30.05,East,79,1.5,3.0,64,0.00,SCT,,0.00,WeatherDisplay:10.37,2013-07-26 16:29:00,
2013-07-26 12:34:00,73.3,59.0,30.05,ENE,57,2.6,3.5,61,0.00,SCT,,0.00,WeatherDisplay:10.37,2013-07-26 16:34:00,
2013-07-26 12:39:00,73.4,59.6,30.05,NE,45,0.0,2.0,62,0.00,SCT,,0.00,WeatherDisplay:10.37,2013-07-26 16:39:00,
2013-07-26 12:44:00,73.4,59.6,30.05,NE,35,0.0,3.0,62,0.00,SCT,,0.00,WeatherDisplay:10.37,2013-07-26 16:44:00,
2013-07-26 12:49:00,73.5,59.2,30.04,NNE,29,0.5,4.6,61,0.00,SCT,,0.00,WeatherDisplay:10.37,2013-07-26 16:49:00,
2013-07-26 12:54:00,73.5,58.3,30.04,NE,34,1.0,4.0,59,0.00,SCT,,0.00,WeatherDisplay:10.37,2013-07-26 16:54:00,
2013-07-26 12:59:00,73.5,59.2,30.05,NE,37,3.0,5.0,61,0.00,SCT,,0.00,WeatherDisplay:10.37,2013-07-26 16:59:00,
2013-07-26 13:04:00,73.5,60.6,30.04,NE,39,0.0,1.2,64,0.00,SCT,,0.00,WeatherDisplay:10.37,2013-07-26 17:04:00,
2013-07-26 13:09:00,73.8,59.0,30.04,NNE,33,2.3,5.8,60,0.00,SCT,,0.00,WeatherDisplay:10.37,2013-07-26 17:09:00,
2013-07-26 13:14:00,73.6,57.4,30.04,NE,39,2.0,4.0,57,0.00,SCT,,0.00,WeatherDisplay:10.37,2013-07-26 17:14:00,
2013-07-26 13:19:00,73.5,59.2,30.04,NNE,21,0.5,3.5,61,0.00,SCT,,0.00,WeatherDisplay:10.37,2013-07-26 17:19:00,
2013-07-26 13:24:00,73.8,58.5,30.04,NE,39,0.0,0.0,59,0.00,SCT,,0.00,WeatherDisplay:10.37,2013-07-26 17:24:00,
2013-07-26 13:29:00,74.1,59.3,30.04,NE,49,0.0,4.0,60,0.00,SCT,,0.00,WeatherDisplay:10.37,2013-07-26 17:29:00,
2013-07-26 13:34:00,74.5,60.6,30.04,ENE,58,0.0,3.0,62,0.00,SCT,,0.00,WeatherDisplay:10.37,2013-07-26 17:34:00,
2013-07-26 13:39:00,74.5,58.3,30.03,NE,46,0.5,2.3,57,0.00,SCT,,0.00,WeatherDisplay:10.37,2013-07-26 17:39:00,
2013-07-26 13:44:00,74.6,58.8,30.03,SSW,202,1.5,4.6,58,0.00,SCT,,0.00,WeatherDisplay:10.37,2013-07-26 17:44:00,
2013-07-26 13:49:00,74.6,59.3,30.03,SW,222,2.3,4.6,59,0.00,SCT,,0.00,WeatherDisplay:10.37,2013-07-26 17:49:00,
2013-07-26 13:54:00,74.6,59.8,30.03,SW,221,0.0,0.0,60,0.00,SCT,,0.00,WeatherDisplay:10.37,2013-07-26 17:54:00,
2013-07-26 13:59:00,74.8,59.0,30.03,SW,225,0.0,0.0,58,0.00,SCT,,0.00,WeatherDisplay:10.37,2013-07-26 17:59:00,
2013-07-26 14:04:00,75.1,58.8,30.03,NNE,13,0.3,2.3,57,0.00,SCT,,0.00,WeatherDisplay:10.37,2013-07-26 18:04:00,
2013-07-26 14:09:00,75.3,58.5,30.02,East,94,0.0,0.0,56,0.00,SCT,,0.00,WeatherDisplay:10.37,2013-07-26 18:09:00,
2013-07-26 14:14:00,75.5,58.7,30.02,ENE,57,1.2,3.5,56,0.00,SCT,,0.00,WeatherDisplay:10.37,2013-07-26 18:14:00,
2013-07-26 14:19:00,75.5,60.2,30.02,ENE,63,0.0,0.0,59,0.00,SCT,,0.00,WeatherDisplay:10.37,2013-07-26 18:19:00,
2013-07-26 14:24:00,75.4,58.1,30.02,NNE,30,2.9,5.8,55,0.00,SCT,,0.00,WeatherDisplay:10.37,2013-07-26 18:24:00,
2013-07-26 14:29:00,75.3,59.0,30.01,NE,38,2.0,3.5,57,0.00,SCT,,0.00,WeatherDisplay:10.37,2013-07-26 18:29:00,
2013-07-26 14:34:00,75.1,59.8,30.02,NE,38,0.0,0.0,59,0.00,SCT,,0.00,WeatherDisplay:10.37,2013-07-26 18:34:00,
2013-07-26 14:39:00,74.8,59.0,30.02,NE,37,1.9,6.0,58,0.00,SCT,,0.00,WeatherDisplay:10.37,2013-07-26 18:39:00,
2013-07-26 14:44:00,74.4,58.7,30.02,NE,45,0.5,2.3,58,0.00,SCT,,0.00,WeatherDisplay:10.37,2013-07-26 18:44:00,
2013-07-26 14:49:00,74.5,57.8,30.01,NE,45,0.0,0.0,56,0.00,SCT,,0.00,WeatherDisplay:10.37,2013-07-26 18:49:00,
2013-07-26 14:54:00,74.8,58.5,30.01,NE,46,4.0,5.8,57,0.00,SCT,,0.00,WeatherDisplay:10.37,2013-07-26 18:54:00,
2013-07-26 14:59:00,75.0,58.2,30.01,NE,39,1.9,6.9,56,0.00,SCT,,0.00,WeatherDisplay:10.37,2013-07-26 18:59:00,
2013-07-26 15:04:00,75.3,60.9,30.01,NE,38,0.1,1.2,61,0.00,BKN,,0.00,WeatherDisplay:10.37,2013-07-26 19:04:00,
2013-07-26 15:09:00,76.0,61.6,30.01,NE,49,0.5,3.5,61,0.00,BKN,,0.00,WeatherDisplay:10.37,2013-07-26 19:09:00,
2013-07-26 15:14:00,76.4,59.5,30.01,NE,41,3.6,6.9,56,0.00,BKN,,0.00,WeatherDisplay:10.37,2013-07-26 19:14:00,
2013-07-26 15:19:00,76.6,60.7,30.00,ESE,114,0.0,0.0,58,0.00,BKN,,0.00,WeatherDisplay:10.37,2013-07-26 19:19:00,
2013-07-26 15:24:00,76.5,59.6,30.00,North,10,1.4,4.6,56,0.00,BKN,,0.00,WeatherDisplay:10.37,2013-07-26 19:24:00,
2013-07-26 15:29:00,76.5,59.6,30.00,NE,39,1.8,5.8,56,0.00,BKN,,0.00,WeatherDisplay:10.37,2013-07-26 19:29:00,
2013-07-26 15:34:00,76.5,59.6,30.00,NE,39,3.7,6.9,56,0.00,BKN,,0.00,WeatherDisplay:10.37,2013-07-26 19:34:00,
2013-07-26 15:39:00,76.5,58.6,30.00,ENE,65,1.1,2.3,54,0.00,BKN,,0.00,WeatherDisplay:10.37,2013-07-26 19:39:00,
2013-07-26 15:44:00,76.5,60.1,30.00,ENE,71,2.2,3.5,57,0.00,BKN,,0.00,WeatherDisplay:10.37,2013-07-26 19:44:00,
2013-07-26 15:49:00,76.6,59.2,30.00,NNE,27,2.4,3.5,55,0.00,BKN,,0.00,WeatherDisplay:10.37,2013-07-26 19:49:00,
2013-07-26 15:54:00,77.0,60.1,29.99,NE,45,1.5,1.5,56,0.00,BKN,,0.00,WeatherDisplay:10.37,2013-07-26 19:54:00,
2013-07-26 15:59:00,76.7,58.8,29.99,NE,49,2.9,3.5,54,0.00,BKN,,0.00,WeatherDisplay:10.37,2013-07-26 19:59:00,
2013-07-26 16:04:00,76.6,61.2,29.99,NE,49,0.2,2.3,59,0.00,BKN,,0.00,WeatherDisplay:10.37,2013-07-26 20:04:00,
2013-07-26 16:09:00,76.5,59.1,29.98,NNE,28,2.6,4.6,55,0.00,BKN,,0.00,WeatherDisplay:10.37,2013-07-26 20:09:00,
2013-07-26 16:14:00,76.4,59.5,29.99,North,351,0.6,3.5,56,0.00,BKN,,0.00,WeatherDisplay:10.37,2013-07-26 20:14:00,
2013-07-26 16:19:00,76.3,59.4,29.98,NNE,27,3.7,6.9,56,0.00,BKN,,0.00,WeatherDisplay:10.37,2013-07-26 20:19:00,
2013-07-26 16:24:00,76.2,60.8,29.98,NE,40,0.5,1.2,59,0.00,BKN,,0.00,WeatherDisplay:10.37,2013-07-26 20:24:00,
2013-07-26 16:29:00,76.2,61.3,29.98,NE,38,1.1,3.5,60,0.00,BKN,,0.00,WeatherDisplay:10.37,2013-07-26 20:29:00,
2013-07-26 16:34:00,76.6,61.2,29.98,NE,38,0.0,0.0,59,0.00,BKN,,0.00,WeatherDisplay:10.37,2013-07-26 20:34:00,
2013-07-26 16:39:00,77.0,59.6,29.98,ENE,61,1.1,4.6,55,0.00,BKN,,0.00,WeatherDisplay:10.37,2013-07-26 20:39:00,
2013-07-26 16:44:00,77.2,60.3,29.98,North,11,1.2,5.0,56,0.00,BKN,,0.00,WeatherDisplay:10.37,2013-07-26 20:44:00,
2013-07-26 16:49:00,77.1,59.2,29.98,NE,37,3.1,3.5,54,0.00,BKN,,0.00,WeatherDisplay:10.37,2013-07-26 20:49:00,
2013-07-26 16:55:00,76.9,59.5,29.98,NNE,19,4.5,5.8,55,0.00,BKN,,0.00,WeatherDisplay:10.37,2013-07-26 20:55:00,
2013-07-26 17:00:00,76.8,59.9,29.97,NE,38,1.6,3.5,56,0.00,BKN,,0.00,WeatherDisplay:10.37,2013-07-26 21:00:00,
2013-07-26 17:05:00,77.0,59.6,29.98,NE,44,3.0,4.0,55,0.00,SCT,,0.00,WeatherDisplay:10.37,2013-07-26 21:05:00,
2013-07-26 17:10:00,77.0,60.1,29.97,NE,34,2.6,5.8,56,0.00,SCT,,0.00,WeatherDisplay:10.37,2013-07-26 21:10:00,
2013-07-26 17:15:00,77.1,59.7,29.97,NE,50,1.1,4.6,55,0.00,SCT,,0.00,WeatherDisplay:10.37,2013-07-26 21:15:00,
2013-07-26 17:20:00,77.1,59.2,29.97,NNE,22,2.0,4.6,54,0.00,SCT,,0.00,WeatherDisplay:10.37,2013-07-26 21:20:00,
2013-07-26 17:25:00,77.1,59.7,29.97,North,360,0.9,4.6,55,0.00,SCT,,0.00,WeatherDisplay:10.37,2013-07-26 21:25:00,
2013-07-26 17:30:00,77.0,59.1,29.97,NNE,26,0.2,2.3,54,0.00,SCT,,0.00,WeatherDisplay:10.37,2013-07-26 21:30:00,
2013-07-26 17:35:00,77.1,59.7,29.97,NNE,26,0.0,1.2,55,0.00,SCT,,0.00,WeatherDisplay:10.37,2013-07-26 21:35:00,
2013-07-26 17:40:00,77.5,59.5,29.97,NNE,19,0.4,3.5,54,0.00,SCT,,0.00,WeatherDisplay:10.37,2013-07-26 21:40:00,
2013-07-26 17:45:00,77.7,58.7,29.97,NNE,21,0.0,0.0,52,0.00,SCT,,0.00,WeatherDisplay:10.37,2013-07-26 21:45:00,
2013-07-26 17:50:00,77.9,59.9,29.97,NNE,23,0.0,1.2,54,0.00,SCT,,0.00,WeatherDisplay:10.37,2013-07-26 21:50:00,
2013-07-26 17:55:00,78.1,61.1,29.97,NNE,24,0.0,0.0,56,0.00,SCT,,0.00,WeatherDisplay:10.37,2013-07-26 21:55:00,
2013-07-26 18:00:00,77.8,60.8,29.97,NNE,24,0.0,0.0,56,0.00,SCT,,0.00,WeatherDisplay:10.37,2013-07-26 22:00:00,
2013-07-26 18:05:00,77.6,60.2,29.97,NNE,24,0.0,0.0,55,0.00,SCT,,0.00,WeatherDisplay:10.37,2013-07-26 22:05:00,
2013-07-26 18:10:00,77.6,59.1,29.97,NNE,24,0.0,1.2,53,0.00,SCT,,0.00,WeatherDisplay:10.37,2013-07-26 22:10:00,
2013-07-26 18:15:00,77.8,61.8,29.97,NNE,15,3.0,3.0,58,0.00,SCT,,0.00,WeatherDisplay:10.37,2013-07-26 22:15:00,
2013-07-26 18:20:00,77.6,62.1,29.97,NNE,17,3.3,4.6,59,0.00,SCT,,0.00,WeatherDisplay:10.37,2013-07-26 22:20:00,
2013-07-26 18:25:00,77.0,62.0,29.97,NE,46,5.6,8.1,60,0.00,SCT,,0.00,WeatherDisplay:10.37,2013-07-26 22:25:00,
2013-07-26 18:30:00,76.5,62.0,29.97,NNE,32,1.4,4.6,61,0.00,SCT,,0.00,WeatherDisplay:10.37,2013-07-26 22:30:00,
2013-07-26 18:35:00,76.0,61.6,29.97,NNE,19,6.2,8.1,61,0.00,SCT,,0.00,WeatherDisplay:10.37,2013-07-26 22:35:00,
2013-07-26 18:40:00,75.5,61.1,29.97,NNE,25,3.0,6.9,61,0.00,SCT,,0.00,WeatherDisplay:10.37,2013-07-26 22:40:00,
2013-07-26 18:45:00,75.1,61.2,29.97,NE,46,3.3,6.9,62,0.00,SCT,,0.00,WeatherDisplay:10.37,2013-07-26 22:45:00,
2013-07-26 18:50:00,74.7,60.8,29.97,NNE,28,4.7,8.1,62,0.00,SCT,,0.00,WeatherDisplay:10.37,2013-07-26 22:50:00,
2013-07-26 18:55:00,74.3,60.9,29.97,NNE,15,3.3,5.8,63,0.00,SCT,,0.00,WeatherDisplay:10.37,2013-07-26 22:55:00,
2013-07-26 19:00:00,73.9,61.0,29.97,NE,34,3.7,6.9,64,0.00,SCT,,0.00,WeatherDisplay:10.37,2013-07-26 23:00:00,
2013-07-26 19:05:00,73.3,61.3,29.97,NE,38,1.7,3.5,66,0.00,SCT,,0.00,WeatherDisplay:10.37,2013-07-26 23:05:00,
2013-07-26 19:10:00,72.9,61.3,29.96,NE,52,1.5,4.0,67,0.00,SCT,,0.00,WeatherDisplay:10.37,2013-07-26 23:10:00,
2013-07-26 19:15:00,72.6,60.6,29.96,East,86,0.5,3.5,66,0.00,SCT,,0.00,WeatherDisplay:10.37,2013-07-26 23:15:00,
2013-07-26 19:20:00,72.3,59.9,29.96,NNE,33,0.6,3.5,65,0.00,SCT,,0.00,WeatherDisplay:10.37,2013-07-26 23:20:00,
2013-07-26 19:25:00,71.9,59.1,29.96,NNE,31,0.6,3.5,64,0.00,SCT,,0.00,WeatherDisplay:10.37,2013-07-26 23:25:00,
2013-07-26 19:30:00,71.6,60.1,29.97,ENE,59,1.0,2.3,67,0.00,SCT,,0.00,WeatherDisplay:10.37,2013-07-26 23:30:00,
2013-07-26 19:35:00,71.4,58.6,29.96,NE,47,0.7,3.5,64,0.00,SCT,,0.00,WeatherDisplay:10.37,2013-07-26 23:35:00,
2013-07-26 19:40:00,71.3,58.5,29.96,NE,52,2.4,4.6,64,0.00,SCT,,0.00,WeatherDisplay:10.37,2013-07-26 23:40:00,
2013-07-26 19:45:00,71.3,58.5,29.96,NE,46,1.8,5.0,64,0.00,SCT,,0.00,WeatherDisplay:10.37,2013-07-26 23:45:00,
2013-07-26 19:50:00,71.3,59.4,29.97,ENE,65,1.4,3.5,66,0.00,SCT,,0.00,WeatherDisplay:10.37,2013-07-26 23:50:00,
2013-07-26 19:55:00,71.2,58.4,29.97,NE,51,0.2,3.5,64,0.00,SCT,,0.00,WeatherDisplay:10.37,2013-07-26 23:55:00,
2013-07-26 20:00:00,71.1,59.2,29.96,NE,56,0.0,0.0,66,0.00,SCT,,0.00,WeatherDisplay:10.37,2013-07-27 00:00:00,
2013-07-26 20:05:00,71.0,59.9,29.96,ENE,57,0.0,1.2,68,0.00,SCT,,0.00,WeatherDisplay:10.37,2013-07-27 00:05:00,
2013-07-26 20:10:00,70.8,58.9,29.96,ENE,61,0.0,0.0,66,0.00,SCT,,0.00,WeatherDisplay:10.37,2013-07-27 00:10:00,
2013-07-26 20:15:00,70.4,58.9,29.96,ENE,61,0.0,0.0,67,0.00,SCT,,0.00,WeatherDisplay:10.37,2013-07-27 00:15:00,
2013-07-26 20:20:00,69.8,59.2,29.96,ENE,61,0.0,0.0,69,0.00,SCT,,0.00,WeatherDisplay:10.37,2013-07-27 00:20:00,
2013-07-26 20:25:00,69.2,59.8,29.96,ENE,60,0.0,0.0,72,0.00,SCT,,0.00,WeatherDisplay:10.37,2013-07-27 00:25:00,
2013-07-26 20:30:00,68.5,59.5,29.96,ENE,61,0.0,0.0,73,0.00,SCT,,0.00,WeatherDisplay:10.37,2013-07-27 00:30:00,
2013-07-26 20:35:00,67.8,59.2,29.96,ENE,61,0.0,0.0,74,0.00,SCT,,0.00,WeatherDisplay:10.37,2013-07-27 00:35:00,
2013-07-26 20:40:00,66.9,58.7,29.96,ENE,61,0.0,0.0,75,0.00,SCT,,0.00,WeatherDisplay:10.37,2013-07-27 00:40:00,
2013-07-26 20:45:00,66.0,58.6,29.96,ENE,60,0.0,0.0,77,0.00,SCT,,0.00,WeatherDisplay:10.37,2013-07-27 00:45:00,
2013-07-26 20:50:00,65.1,57.7,29.96,ENE,61,0.0,0.0,77,0.00,SCT,,0.00,WeatherDisplay:10.37,2013-07-27 00:50:00,
2013-07-26 20:55:00,64.4,57.4,29.96,ENE,61,0.0,0.0,78,0.00,SCT,,0.00,WeatherDisplay:10.37,2013-07-27 00:55:00,
2013-07-26 21:00:00,63.9,57.6,29.96,ENE,61,0.0,0.0,80,0.00,SCT,,0.00,WeatherDisplay:10.37,2013-07-27 01:00:00,
2013-07-26 21:05:00,63.4,57.8,29.96,ENE,61,0.0,0.0,82,0.00,SCT,,0.00,WeatherDisplay:10.37,2013-07-27 01:05:00,
2013-07-26 21:10:00,63.0,57.8,29.96,ENE,60,0.0,0.0,83,0.00,SCT,,0.00,WeatherDisplay:10.37,2013-07-27 01:10:00,
2013-07-26 21:15:00,62.6,57.4,29.96,ENE,61,0.0,0.0,83,0.00,SCT,,0.00,WeatherDisplay:10.37,2013-07-27 01:15:00,
2013-07-26 21:20:00,62.2,57.6,29.96,ENE,60,0.0,0.0,85,0.00,SCT,,0.00,WeatherDisplay:10.37,2013-07-27 01:20:00,
2013-07-26 21:25:00,61.8,57.2,29.96,ENE,61,0.0,0.0,85,0.00,SCT,,0.00,WeatherDisplay:10.37,2013-07-27 01:25:00,
2013-07-26 21:30:00,61.4,56.8,29.96,ENE,61,0.0,0.0,85,0.00,SCT,,0.00,WeatherDisplay:10.37,2013-07-27 01:30:00,
2013-07-26 21:35:00,61.0,56.8,29.96,ENE,61,0.0,0.0,86,0.00,SCT,,0.00,WeatherDisplay:10.37,2013-07-27 01:35:00,
2013-07-26 21:40:00,60.7,56.8,29.96,ENE,60,0.0,0.0,87,0.00,SCT,,0.00,WeatherDisplay:10.37,2013-07-27 01:40:00,
2013-07-26 21:46:00,60.7,57.1,29.96,ENE,61,0.0,0.0,88,0.00,SCT,,0.00,WeatherDisplay:10.37,2013-07-27 01:46:00,
2013-07-26 21:51:00,60.5,56.9,29.95,ENE,60,0.0,0.0,88,0.00,SCT,,0.00,WeatherDisplay:10.37,2013-07-27 01:51:00,
2013-07-26 21:56:00,60.2,56.6,29.96,ENE,61,0.0,0.0,88,0.00,SCT,,0.00,WeatherDisplay:10.37,2013-07-27 01:56:00,
2013-07-26 22:01:00,60.0,56.4,29.96,ENE,60,0.0,0.0,88,0.00,SCT,,0.00,WeatherDisplay:10.37,2013-07-27 02:01:00,
2013-07-26 22:06:00,59.8,56.6,29.96,ENE,61,0.0,0.0,89,0.00,SCT,,0.00,WeatherDisplay:10.37,2013-07-27 02:06:00,
2013-07-26 22:11:00,59.6,56.4,29.96,ENE,61,0.0,0.0,89,0.00,SCT,,0.00,WeatherDisplay:10.37,2013-07-27 02:11:00,
2013-07-26 22:16:00,59.4,56.2,29.96,ENE,60,0.0,0.0,89,0.00,SCT,,0.00,WeatherDisplay:10.37,2013-07-27 02:16:00,
2013-07-26 22:21:00,59.2,56.0,29.96,ENE,61,0.0,0.0,89,0.00,SCT,,0.00,WeatherDisplay:10.37,2013-07-27 02:21:00,
2013-07-26 22:26:00,59.1,56.2,29.96,ENE,61,0.0,0.0,90,0.00,SCT,,0.00,WeatherDisplay:10.37,2013-07-27 02:26:00,
2013-07-26 22:31:00,59.0,56.1,29.96,ENE,60,0.0,0.0,90,0.00,SCT,,0.00,WeatherDisplay:10.37,2013-07-27 02:31:00,
2013-07-26 22:36:00,59.0,56.1,29.96,ENE,61,0.0,0.0,90,0.00,SCT,,0.00,WeatherDisplay:10.37,2013-07-27 02:36:00,
2013-07-26 22:41:00,59.0,56.1,29.97,ENE,61,0.0,0.0,90,0.00,SCT,,0.00,WeatherDisplay:10.37,2013-07-27 02:41:00,
2013-07-26 22:46:00,59.0,56.1,29.96,ENE,61,0.0,0.0,90,0.00,SCT,,0.00,WeatherDisplay:10.37,2013-07-27 02:46:00,
2013-07-26 22:51:00,59.0,56.1,29.96,ENE,61,0.0,0.0,90,0.00,SCT,,0.00,WeatherDisplay:10.37,2013-07-27 02:51:00,
2013-07-26 22:56:00,59.0,56.4,29.96,ENE,61,0.0,0.0,91,0.00,SCT,,0.00,WeatherDisplay:10.37,2013-07-27 02:56:00,
2013-07-26 23:01:00,59.0,56.4,29.96,ENE,61,0.0,0.0,91,0.00,SCT,,0.00,WeatherDisplay:10.37,2013-07-27 03:01:00,
2013-07-26 23:06:00,59.0,56.4,29.96,ENE,60,0.0,0.0,91,0.00,SCT,,0.00,WeatherDisplay:10.37,2013-07-27 03:06:00,
2013-07-26 23:11:00,59.0,56.4,29.96,ENE,61,0.0,0.0,91,0.00,SCT,,0.00,WeatherDisplay:10.37,2013-07-27 03:11:00,
2013-07-26 23:16:00,59.0,56.4,29.96,ENE,61,0.0,0.0,91,0.00,SCT,,0.00,WeatherDisplay:10.37,2013-07-27 03:16:00,
2013-07-26 23:21:00,58.9,56.3,29.95,ENE,61,0.0,0.0,91,0.00,SCT,,0.00,WeatherDisplay:10.37,2013-07-27 03:21:00,
2013-07-26 23:26:00,58.7,56.1,29.96,ENE,60,0.0,0.0,91,0.00,SCT,,0.00,WeatherDisplay:10.37,2013-07-27 03:26:00,
2013-07-26 23:31:00,58.6,56.0,29.95,ENE,61,0.0,0.0,91,0.00,SCT,,0.00,WeatherDisplay:10.37,2013-07-27 03:31:00,
2013-07-26 23:36:00,58.7,56.1,29.95,ENE,61,0.0,0.0,91,0.00,SCT,,0.00,WeatherDisplay:10.37,2013-07-27 03:36:00,
2013-07-26 23:41:00,58.5,56.2,29.95,ENE,61,0.0,0.0,92,0.00,SCT,,0.00,WeatherDisplay:10.37,2013-07-27 03:41:00,
2013-07-26 23:46:00,58.4,56.1,29.95,ENE,61,0.0,0.0,92,0.00,SCT,,0.00,WeatherDisplay:10.37,2013-07-27 03:46:00,
2013-07-26 23:51:00,58.4,56.1,29.95,ENE,61,0.0,0.0,92,0.00,SCT,,0.00,WeatherDisplay:10.37,2013-07-27 03:51:00,
2013-07-26 23:56:00,58.2,55.9,29.95,ENE,61,0.0,0.0,92,0.00,SCT,,0.00,WeatherDisplay:10.37,2013-07-27 03:56:00,